sensor_id;sensor_type;location;lat;lon;timestamp;pressure;altitude;pressure_sealevel;temperature;humidity
10720;BME280;5411;58.386;15.560;2023-02-20T00:00:16;99712.47;;;0.08;78.56
10720;BME280;5411;58.386;15.560;2023-02-20T00:02:47;99705.41;;;0.09;77.19
10720;BME280;5411;58.386;15.560;2023-02-20T00:05:21;99716.13;;;0.15;77.87
10720;BME280;5411;58.386;15.560;2023-02-20T00:07:49;99695.25;;;0.14;76.97
10720;BME280;5411;58.386;15.560;2023-02-20T00:10:18;99685.78;;;0.21;76.94
10720;BME280;5411;58.386;15.560;2023-02-20T00:12:46;99684.50;;;0.25;77.13
10720;BME280;5411;58.386;15.560;2023-02-20T00:15:15;99689.97;;;0.31;76.90
10720;BME280;5411;58.386;15.560;2023-02-20T00:17:48;99688.53;;;0.37;76.60
10720;BME280;5411;58.386;15.560;2023-02-20T00:20:21;99678.34;;;0.42;76.45
10720;BME280;5411;58.386;15.560;2023-02-20T00:22:52;99680.53;;;0.47;77.32
10720;BME280;5411;58.386;15.560;2023-02-20T00:25:23;99675.78;;;0.50;77.74
10720;BME280;5411;58.386;15.560;2023-02-20T00:27:52;99675.63;;;0.52;77.38
10720;BME280;5411;58.386;15.560;2023-02-20T00:30:22;99661.31;;;0.54;78.10
10720;BME280;5411;58.386;15.560;2023-02-20T00:32:52;99647.34;;;0.54;77.73
10720;BME280;5411;58.386;15.560;2023-02-20T00:35:21;99637.00;;;0.52;77.72
10720;BME280;5411;58.386;15.560;2023-02-20T00:37:53;99631.56;;;0.54;77.75
10720;BME280;5411;58.386;15.560;2023-02-20T00:40:24;99612.97;;;0.55;79.13
10720;BME280;5411;58.386;15.560;2023-02-20T00:42:54;99611.16;;;0.56;78.71
10720;BME280;5411;58.386;15.560;2023-02-20T00:45:23;99602.59;;;0.54;79.43
10720;BME280;5411;58.386;15.560;2023-02-20T00:47:51;99598.69;;;0.58;80.32
10720;BME280;5411;58.386;15.560;2023-02-20T00:50:20;99583.56;;;0.60;79.80
10720;BME280;5411;58.386;15.560;2023-02-20T00:52:48;99581.59;;;0.62;80.57
10720;BME280;5411;58.386;15.560;2023-02-20T00:55:18;99579.50;;;0.65;80.56
10720;BME280;5411;58.386;15.560;2023-02-20T00:57:47;99576.84;;;0.65;81.09
10720;BME280;5411;58.386;15.560;2023-02-20T01:00:24;99552.66;;;0.70;80.99
10720;BME280;5411;58.386;15.560;2023-02-20T01:02:53;99546.44;;;0.71;82.25
10720;BME280;5411;58.386;15.560;2023-02-20T01:05:22;99541.84;;;0.73;82.66
10720;BME280;5411;58.386;15.560;2023-02-20T01:07:52;99533.78;;;0.75;82.31
10720;BME280;5411;58.386;15.560;2023-02-20T01:10:23;99525.88;;;0.75;83.12
10720;BME280;5411;58.386;15.560;2023-02-20T01:12:51;99519.47;;;0.77;84.09
10720;BME280;5411;58.386;15.560;2023-02-20T01:15:25;99517.66;;;0.78;83.84
10720;BME280;5411;58.386;15.560;2023-02-20T01:17:54;99514.06;;;0.79;85.08
10720;BME280;5411;58.386;15.560;2023-02-20T01:20:24;99496.28;;;0.81;85.05
10720;BME280;5411;58.386;15.560;2023-02-20T01:22:54;99502.03;;;0.84;86.28
10720;BME280;5411;58.386;15.560;2023-02-20T01:25:27;99495.13;;;0.83;87.37
10720;BME280;5411;58.386;15.560;2023-02-20T01:27:55;99493.97;;;0.86;88.54
10720;BME280;5411;58.386;15.560;2023-02-20T01:30:23;99483.28;;;0.87;89.67
10720;BME280;5411;58.386;15.560;2023-02-20T01:32:52;99477.03;;;0.88;91.03
10720;BME280;5411;58.386;15.560;2023-02-20T01:35:23;99464.72;;;0.89;91.74
10720;BME280;5411;58.386;15.560;2023-02-20T01:38:15;99448.75;;;0.90;93.59
10720;BME280;5411;58.386;15.560;2023-02-20T01:40:48;99441.69;;;0.91;93.64
10720;BME280;5411;58.386;15.560;2023-02-20T01:43:17;99437.06;;;0.93;94.20
10720;BME280;5411;58.386;15.560;2023-02-20T01:45:46;99431.16;;;0.91;95.07
10720;BME280;5411;58.386;15.560;2023-02-20T01:48:19;99421.28;;;0.93;96.59
10720;BME280;5411;58.386;15.560;2023-02-20T01:50:53;99411.53;;;0.93;96.83
10720;BME280;5411;58.386;15.560;2023-02-20T01:53:27;99394.28;;;0.99;98.71
10720;BME280;5411;58.386;15.560;2023-02-20T01:56:02;99391.47;;;1.00;99.41
10720;BME280;5411;58.386;15.560;2023-02-20T01:58:35;99375.50;;;1.02;100.00
10720;BME280;5411;58.386;15.560;2023-02-20T02:01:06;99383.25;;;1.03;100.00
10720;BME280;5411;58.386;15.560;2023-02-20T02:03:35;99362.03;;;1.05;100.00
10720;BME280;5411;58.386;15.560;2023-02-20T02:06:06;99359.69;;;1.10;100.00
10720;BME280;5411;58.386;15.560;2023-02-20T02:08:36;99348.00;;;1.13;100.00
10720;BME280;5411;58.386;15.560;2023-02-20T02:11:09;99337.16;;;1.16;100.00
10720;BME280;5411;58.386;15.560;2023-02-20T02:13:39;99332.38;;;1.19;100.00
10720;BME280;5411;58.386;15.560;2023-02-20T02:16:17;99326.41;;;1.25;100.00
10720;BME280;5411;58.386;15.560;2023-02-20T02:18:56;99305.50;;;1.24;100.00
10720;BME280;5411;58.386;15.560;2023-02-20T02:22:00;99290.69;;;1.31;100.00
10720;BME280;5411;58.386;15.560;2023-02-20T02:27:51;99266.44;;;1.35;100.00
10720;BME280;5411;58.386;15.560;2023-02-20T02:30:57;99266.81;;;1.32;100.00
10720;BME280;5411;58.386;15.560;2023-02-20T02:33:44;99243.09;;;1.32;100.00
10720;BME280;5411;58.386;15.560;2023-02-20T02:36:38;99223.63;;;1.33;100.00
10720;BME280;5411;58.386;15.560;2023-02-20T02:39:26;99218.34;;;1.33;100.00
10720;BME280;5411;58.386;15.560;2023-02-20T02:42:04;99203.22;;;1.35;100.00
10720;BME280;5411;58.386;15.560;2023-02-20T02:44:40;99200.88;;;1.40;100.00
10720;BME280;5411;58.386;15.560;2023-02-20T02:47:12;99186.38;;;1.45;100.00
10720;BME280;5411;58.386;15.560;2023-02-20T02:49:49;99169.22;;;1.49;100.00
10720;BME280;5411;58.386;15.560;2023-02-20T02:52:22;99155.03;;;1.50;100.00
10720;BME280;5411;58.386;15.560;2023-02-20T02:55:26;99157.63;;;1.58;100.00
10720;BME280;5411;58.386;15.560;2023-02-20T02:57:55;99140.47;;;1.62;100.00
10720;BME280;5411;58.386;15.560;2023-02-20T03:00:26;99133.19;;;1.64;100.00
10720;BME280;5411;58.386;15.560;2023-02-20T03:03:00;99122.13;;;1.68;100.00
10720;BME280;5411;58.386;15.560;2023-02-20T03:05:36;99109.44;;;1.72;100.00
10720;BME280;5411;58.386;15.560;2023-02-20T03:08:26;99109.06;;;1.75;100.00
10720;BME280;5411;58.386;15.560;2023-02-20T03:11:04;99089.59;;;1.76;100.00
10720;BME280;5411;58.386;15.560;2023-02-20T03:13:35;99066.88;;;1.75;100.00
10720;BME280;5411;58.386;15.560;2023-02-20T03:16:29;99071.63;;;1.79;100.00
10720;BME280;5411;58.386;15.560;2023-02-20T03:19:06;99062.53;;;1.82;100.00
10720;BME280;5411;58.386;15.560;2023-02-20T03:21:44;99051.66;;;1.85;100.00
10720;BME280;5411;58.386;15.560;2023-02-20T03:24:23;99043.53;;;1.87;100.00
10720;BME280;5411;58.386;15.560;2023-02-20T03:26:54;99035.28;;;1.90;100.00
10720;BME280;5411;58.386;15.560;2023-02-20T03:29:26;99028.66;;;1.94;100.00
10720;BME280;5411;58.386;15.560;2023-02-20T03:32:00;99016.28;;;1.94;100.00
10720;BME280;5411;58.386;15.560;2023-02-20T03:34:49;99002.56;;;1.99;100.00
10720;BME280;5411;58.386;15.560;2023-02-20T03:37:42;98990.00;;;2.01;100.00
10720;BME280;5411;58.386;15.560;2023-02-20T03:40:32;98988.16;;;2.01;100.00
10720;BME280;5411;58.386;15.560;2023-02-20T03:43:21;98986.81;;;2.05;100.00
10720;BME280;5411;58.386;15.560;2023-02-20T03:45:58;98970.81;;;2.07;100.00
10720;BME280;5411;58.386;15.560;2023-02-20T03:48:43;98963.34;;;2.10;100.00
10720;BME280;5411;58.386;15.560;2023-02-20T03:51:13;98961.16;;;2.14;100.00
10720;BME280;5411;58.386;15.560;2023-02-20T03:53:44;98944.31;;;2.15;100.00
10720;BME280;5411;58.386;15.560;2023-02-20T03:56:17;98934.22;;;2.19;100.00
10720;BME280;5411;58.386;15.560;2023-02-20T03:58:53;98915.94;;;2.17;100.00
10720;BME280;5411;58.386;15.560;2023-02-20T04:01:24;98907.13;;;2.25;100.00
10720;BME280;5411;58.386;15.560;2023-02-20T04:03:55;98892.28;;;2.24;100.00
10720;BME280;5411;58.386;15.560;2023-02-20T04:06:28;98897.00;;;2.28;100.00
10720;BME280;5411;58.386;15.560;2023-02-20T04:09:01;98889.72;;;2.30;100.00
10720;BME280;5411;58.386;15.560;2023-02-20T04:11:35;98874.69;;;2.31;100.00
10720;BME280;5411;58.386;15.560;2023-02-20T04:14:05;98864.97;;;2.31;100.00
10720;BME280;5411;58.386;15.560;2023-02-20T04:16:42;98858.88;;;2.31;100.00
10720;BME280;5411;58.386;15.560;2023-02-20T04:19:12;98839.13;;;2.27;100.00
10720;BME280;5411;58.386;15.560;2023-02-20T04:21:47;98803.78;;;2.21;100.00
10720;BME280;5411;58.386;15.560;2023-02-20T04:24:21;98806.41;;;2.21;100.00
10720;BME280;5411;58.386;15.560;2023-02-20T04:26:52;98802.16;;;2.20;100.00
10720;BME280;5411;58.386;15.560;2023-02-20T04:29:21;98779.59;;;2.18;100.00
10720;BME280;5411;58.386;15.560;2023-02-20T04:31:49;98762.13;;;2.17;100.00
10720;BME280;5411;58.386;15.560;2023-02-20T04:34:17;98757.84;;;2.15;100.00
10720;BME280;5411;58.386;15.560;2023-02-20T04:36:46;98746.31;;;2.17;100.00
10720;BME280;5411;58.386;15.560;2023-02-20T04:39:15;98735.34;;;2.13;100.00
10720;BME280;5411;58.386;15.560;2023-02-20T04:41:44;98714.22;;;2.13;100.00
10720;BME280;5411;58.386;15.560;2023-02-20T04:44:14;98684.78;;;2.09;100.00
10720;BME280;5411;58.386;15.560;2023-02-20T04:47:05;98667.13;;;2.10;100.00
10720;BME280;5411;58.386;15.560;2023-02-20T04:49:34;98648.84;;;2.08;100.00
10720;BME280;5411;58.386;15.560;2023-02-20T04:52:03;98623.50;;;2.07;100.00
10720;BME280;5411;58.386;15.560;2023-02-20T04:54:32;98611.13;;;2.08;100.00
10720;BME280;5411;58.386;15.560;2023-02-20T04:57:00;98608.66;;;2.06;100.00
10720;BME280;5411;58.386;15.560;2023-02-20T04:59:30;98603.22;;;2.08;100.00
10720;BME280;5411;58.386;15.560;2023-02-20T05:01:58;98585.13;;;2.05;100.00
10720;BME280;5411;58.386;15.560;2023-02-20T05:04:27;98560.75;;;2.03;100.00
10720;BME280;5411;58.386;15.560;2023-02-20T05:06:56;98552.66;;;2.04;100.00
10720;BME280;5411;58.386;15.560;2023-02-20T05:09:25;98533.56;;;2.02;100.00
10720;BME280;5411;58.386;15.560;2023-02-20T05:11:53;98532.38;;;2.05;100.00
10720;BME280;5411;58.386;15.560;2023-02-20T05:14:21;98523.66;;;2.04;100.00
10720;BME280;5411;58.386;15.560;2023-02-20T05:16:51;98504.38;;;2.04;100.00
10720;BME280;5411;58.386;15.560;2023-02-20T05:19:20;98489.56;;;2.03;100.00
10720;BME280;5411;58.386;15.560;2023-02-20T05:21:48;98491.38;;;2.02;100.00
10720;BME280;5411;58.386;15.560;2023-02-20T05:24:34;98465.81;;;2.03;100.00
10720;BME280;5411;58.386;15.560;2023-02-20T05:27:02;98451.19;;;2.00;100.00
10720;BME280;5411;58.386;15.560;2023-02-20T05:29:31;98429.28;;;2.00;100.00
10720;BME280;5411;58.386;15.560;2023-02-20T05:32:00;98402.94;;;2.00;100.00
10720;BME280;5411;58.386;15.560;2023-02-20T05:34:29;98387.09;;;2.00;100.00
10720;BME280;5411;58.386;15.560;2023-02-20T05:36:57;98404.56;;;2.01;100.00
10720;BME280;5411;58.386;15.560;2023-02-20T05:39:26;98393.19;;;2.00;100.00
10720;BME280;5411;58.386;15.560;2023-02-20T05:41:55;98374.53;;;2.02;100.00
10720;BME280;5411;58.386;15.560;2023-02-20T05:44:23;98356.69;;;2.04;100.00
10720;BME280;5411;58.386;15.560;2023-02-20T05:46:51;98349.59;;;2.04;100.00
10720;BME280;5411;58.386;15.560;2023-02-20T05:49:23;98312.50;;;2.06;100.00
10720;BME280;5411;58.386;15.560;2023-02-20T05:51:55;98299.13;;;2.07;100.00
10720;BME280;5411;58.386;15.560;2023-02-20T05:54:24;98301.13;;;2.05;100.00
10720;BME280;5411;58.386;15.560;2023-02-20T05:56:52;98307.41;;;2.04;100.00
10720;BME280;5411;58.386;15.560;2023-02-20T05:59:23;98262.59;;;2.04;100.00
10720;BME280;5411;58.386;15.560;2023-02-20T06:01:55;98262.59;;;2.04;100.00
10720;BME280;5411;58.386;15.560;2023-02-20T06:04:25;98260.97;;;2.03;100.00
10720;BME280;5411;58.386;15.560;2023-02-20T06:06:55;98231.94;;;2.03;100.00
10720;BME280;5411;58.386;15.560;2023-02-20T06:09:24;98222.22;;;2.04;100.00
10720;BME280;5411;58.386;15.560;2023-02-20T06:11:54;98232.75;;;2.04;100.00
10720;BME280;5411;58.386;15.560;2023-02-20T06:14:25;98228.91;;;2.06;100.00
10720;BME280;5411;58.386;15.560;2023-02-20T06:16:55;98217.56;;;2.06;100.00
10720;BME280;5411;58.386;15.560;2023-02-20T06:19:25;98206.81;;;2.07;100.00
10720;BME280;5411;58.386;15.560;2023-02-20T06:21:54;98169.09;;;2.07;100.00
10720;BME280;5411;58.386;15.560;2023-02-20T06:24:24;98180.25;;;2.09;100.00
10720;BME280;5411;58.386;15.560;2023-02-20T06:26:54;98158.34;;;2.08;100.00
10720;BME280;5411;58.386;15.560;2023-02-20T06:29:23;98157.94;;;2.11;100.00
10720;BME280;5411;58.386;15.560;2023-02-20T06:31:51;98154.88;;;2.14;100.00
10720;BME280;5411;58.386;15.560;2023-02-20T06:34:19;98166.03;;;2.17;100.00
10720;BME280;5411;58.386;15.560;2023-02-20T06:36:52;98121.81;;;2.19;100.00
10720;BME280;5411;58.386;15.560;2023-02-20T06:39:21;98127.50;;;2.22;100.00
10720;BME280;5411;58.386;15.560;2023-02-20T06:41:49;98114.09;;;2.24;100.00
10720;BME280;5411;58.386;15.560;2023-02-20T06:44:18;98120.00;;;2.26;100.00
10720;BME280;5411;58.386;15.560;2023-02-20T06:46:46;98095.19;;;2.27;100.00
10720;BME280;5411;58.386;15.560;2023-02-20T06:49:14;98087.09;;;2.28;100.00
10720;BME280;5411;58.386;15.560;2023-02-20T06:51:43;98074.31;;;2.32;100.00
10720;BME280;5411;58.386;15.560;2023-02-20T06:54:14;98079.38;;;2.33;100.00
10720;BME280;5411;58.386;15.560;2023-02-20T06:56:43;98059.69;;;2.36;100.00
10720;BME280;5411;58.386;15.560;2023-02-20T06:59:11;98032.09;;;2.38;100.00
10720;BME280;5411;58.386;15.560;2023-02-20T07:01:42;98041.38;;;2.41;100.00
10720;BME280;5411;58.386;15.560;2023-02-20T07:04:14;97997.16;;;2.43;100.00
10720;BME280;5411;58.386;15.560;2023-02-20T07:06:44;98005.25;;;2.48;100.00
10720;BME280;5411;58.386;15.560;2023-02-20T07:09:17;97979.84;;;2.54;100.00
10720;BME280;5411;58.386;15.560;2023-02-20T07:11:47;97996.66;;;2.59;100.00
10720;BME280;5411;58.386;15.560;2023-02-20T07:14:16;97991.94;;;2.68;100.00
10720;BME280;5411;58.386;15.560;2023-02-20T07:16:44;97959.66;;;2.72;100.00
10720;BME280;5411;58.386;15.560;2023-02-20T07:19:14;97954.56;;;2.77;100.00
10720;BME280;5411;58.386;15.560;2023-02-20T07:21:45;97938.25;;;2.80;100.00
10720;BME280;5411;58.386;15.560;2023-02-20T07:24:17;97927.88;;;2.85;100.00
10720;BME280;5411;58.386;15.560;2023-02-20T07:26:48;97928.22;;;2.96;100.00
10720;BME280;5411;58.386;15.560;2023-02-20T07:29:21;97909.31;;;2.99;100.00
10720;BME280;5411;58.386;15.560;2023-02-20T07:31:49;97901.09;;;3.07;100.00
10720;BME280;5411;58.386;15.560;2023-02-20T07:34:18;97905.75;;;3.11;100.00
10720;BME280;5411;58.386;15.560;2023-02-20T07:36:46;97884.56;;;3.18;100.00
10720;BME280;5411;58.386;15.560;2023-02-20T07:39:17;97885.75;;;3.22;100.00
10720;BME280;5411;58.386;15.560;2023-02-20T07:41:49;97861.91;;;3.29;100.00
10720;BME280;5411;58.386;15.560;2023-02-20T07:44:18;97864.94;;;3.32;100.00
10720;BME280;5411;58.386;15.560;2023-02-20T07:46:46;97856.34;;;3.37;100.00
10720;BME280;5411;58.386;15.560;2023-02-20T07:49:15;97845.56;;;3.38;100.00
10720;BME280;5411;58.386;15.560;2023-02-20T07:51:43;97840.34;;;3.50;100.00
10720;BME280;5411;58.386;15.560;2023-02-20T07:54:12;97826.03;;;3.57;100.00
10720;BME280;5411;58.386;15.560;2023-02-20T07:56:41;97830.44;;;3.64;100.00
10720;BME280;5411;58.386;15.560;2023-02-20T07:59:10;97813.69;;;3.70;100.00
10720;BME280;5411;58.386;15.560;2023-02-20T08:01:38;97795.78;;;3.72;100.00
10720;BME280;5411;58.386;15.560;2023-02-20T08:04:07;97800.53;;;3.81;100.00
10720;BME280;5411;58.386;15.560;2023-02-20T08:06:37;97792.88;;;3.91;100.00
10720;BME280;5411;58.386;15.560;2023-02-20T08:09:06;97801.53;;;3.99;100.00
10720;BME280;5411;58.386;15.560;2023-02-20T08:11:36;97787.97;;;4.07;100.00
10720;BME280;5411;58.386;15.560;2023-02-20T08:14:06;97778.34;;;4.12;100.00
10720;BME280;5411;58.386;15.560;2023-02-20T08:16:35;97781.69;;;4.19;100.00
10720;BME280;5411;58.386;15.560;2023-02-20T08:19:03;97773.09;;;4.24;100.00
10720;BME280;5411;58.386;15.560;2023-02-20T08:21:31;97774.81;;;4.30;100.00
10720;BME280;5411;58.386;15.560;2023-02-20T08:24:00;97766.19;;;4.35;100.00
10720;BME280;5411;58.386;15.560;2023-02-20T08:26:28;97745.94;;;4.40;100.00
10720;BME280;5411;58.386;15.560;2023-02-20T08:28:57;97736.06;;;4.47;100.00
10720;BME280;5411;58.386;15.560;2023-02-20T08:31:27;97728.81;;;4.54;100.00
10720;BME280;5411;58.386;15.560;2023-02-20T08:33:58;97714.22;;;4.63;100.00
10720;BME280;5411;58.386;15.560;2023-02-20T08:36:27;97708.78;;;4.70;100.00
10720;BME280;5411;58.386;15.560;2023-02-20T08:38:57;97702.69;;;4.81;100.00
10720;BME280;5411;58.386;15.560;2023-02-20T08:41:28;97700.50;;;4.90;100.00
10720;BME280;5411;58.386;15.560;2023-02-20T08:43:56;97689.31;;;4.99;100.00
10720;BME280;5411;58.386;15.560;2023-02-20T08:46:24;97685.59;;;5.12;100.00
10720;BME280;5411;58.386;15.560;2023-02-20T08:48:54;97680.03;;;5.25;100.00
10720;BME280;5411;58.386;15.560;2023-02-20T08:51:28;97673.19;;;5.41;100.00
10720;BME280;5411;58.386;15.560;2023-02-20T08:53:57;97670.09;;;5.61;100.00
10720;BME280;5411;58.386;15.560;2023-02-20T08:56:25;97647.53;;;5.75;100.00
10720;BME280;5411;58.386;15.560;2023-02-20T08:58:53;97653.81;;;5.97;100.00
10720;BME280;5411;58.386;15.560;2023-02-20T09:01:22;97663.53;;;6.25;100.00
10720;BME280;5411;58.386;15.560;2023-02-20T09:03:51;97660.47;;;6.50;100.00
10720;BME280;5411;58.386;15.560;2023-02-20T09:06:21;97661.88;;;6.74;100.00
10720;BME280;5411;58.386;15.560;2023-02-20T09:08:51;97637.97;;;6.96;100.00
10720;BME280;5411;58.386;15.560;2023-02-20T09:11:23;97643.28;;;7.18;100.00
10720;BME280;5411;58.386;15.560;2023-02-20T09:13:53;97635.22;;;7.35;100.00
10720;BME280;5411;58.386;15.560;2023-02-20T09:16:22;97633.84;;;7.54;100.00
10720;BME280;5411;58.386;15.560;2023-02-20T09:18:51;97632.38;;;7.68;100.00
10720;BME280;5411;58.386;15.560;2023-02-20T09:21:25;97623.44;;;7.79;100.00
10720;BME280;5411;58.386;15.560;2023-02-20T09:23:54;97618.19;;;7.90;100.00
10720;BME280;5411;58.386;15.560;2023-02-20T09:26:23;97620.94;;;8.00;100.00
10720;BME280;5411;58.386;15.560;2023-02-20T09:28:51;97603.72;;;8.12;100.00
10720;BME280;5411;58.386;15.560;2023-02-20T09:31:20;97597.47;;;8.29;100.00
10720;BME280;5411;58.386;15.560;2023-02-20T09:33:48;97584.25;;;8.39;100.00
10720;BME280;5411;58.386;15.560;2023-02-20T09:36:17;97600.81;;;8.46;100.00
10720;BME280;5411;58.386;15.560;2023-02-20T09:38:47;97597.66;;;8.54;100.00
10720;BME280;5411;58.386;15.560;2023-02-20T09:41:27;97602.25;;;8.64;100.00
10720;BME280;5411;58.386;15.560;2023-02-20T09:44:10;97607.59;;;8.69;100.00
10720;BME280;5411;58.386;15.560;2023-02-20T09:46:42;97590.53;;;8.70;100.00
10720;BME280;5411;58.386;15.560;2023-02-20T09:49:13;97603.91;;;8.75;100.00
10720;BME280;5411;58.386;15.560;2023-02-20T09:51:45;97603.66;;;8.81;100.00
10720;BME280;5411;58.386;15.560;2023-02-20T09:54:22;97603.44;;;8.88;100.00
10720;BME280;5411;58.386;15.560;2023-02-20T09:56:54;97594.91;;;8.96;100.00
10720;BME280;5411;58.386;15.560;2023-02-20T09:59:26;97604.81;;;9.01;100.00
10720;BME280;5411;58.386;15.560;2023-02-20T10:01:57;97586.41;;;8.99;100.00
10720;BME280;5411;58.386;15.560;2023-02-20T10:04:31;97602.69;;;9.03;100.00
10720;BME280;5411;58.386;15.560;2023-02-20T10:07:14;97605.59;;;8.96;100.00
10720;BME280;5411;58.386;15.560;2023-02-20T10:09:45;97595.47;;;8.98;100.00
10720;BME280;5411;58.386;15.560;2023-02-20T10:12:18;97600.81;;;8.98;100.00
10720;BME280;5411;58.386;15.560;2023-02-20T10:15:03;97594.16;;;9.01;100.00
10720;BME280;5411;58.386;15.560;2023-02-20T10:17:43;97592.53;;;9.00;100.00
10720;BME280;5411;58.386;15.560;2023-02-20T10:20:22;97586.44;;;9.04;100.00
10720;BME280;5411;58.386;15.560;2023-02-20T10:22:58;97584.56;;;9.05;100.00
10720;BME280;5411;58.386;15.560;2023-02-20T10:25:34;97580.06;;;9.20;100.00
10720;BME280;5411;58.386;15.560;2023-02-20T10:28:08;97581.16;;;9.35;100.00
10720;BME280;5411;58.386;15.560;2023-02-20T10:30:41;97587.88;;;9.47;100.00
10720;BME280;5411;58.386;15.560;2023-02-20T10:33:19;97582.56;;;9.52;100.00
10720;BME280;5411;58.386;15.560;2023-02-20T10:35:52;97569.22;;;9.52;100.00
10720;BME280;5411;58.386;15.560;2023-02-20T10:38:27;97597.22;;;9.50;100.00
10720;BME280;5411;58.386;15.560;2023-02-20T10:41:02;97587.38;;;9.55;100.00
10720;BME280;5411;58.386;15.560;2023-02-20T10:43:39;97580.41;;;9.59;100.00
10720;BME280;5411;58.386;15.560;2023-02-20T10:46:16;97574.31;;;9.69;100.00
10720;BME280;5411;58.386;15.560;2023-02-20T10:48:46;97576.69;;;9.76;100.00
10720;BME280;5411;58.386;15.560;2023-02-20T10:51:23;97573.75;;;9.77;100.00
10720;BME280;5411;58.386;15.560;2023-02-20T10:53:58;97574.56;;;9.78;100.00
10720;BME280;5411;58.386;15.560;2023-02-20T10:56:31;97576.41;;;9.72;100.00
10720;BME280;5411;58.386;15.560;2023-02-20T10:59:06;97590.03;;;9.65;100.00
10720;BME280;5411;58.386;15.560;2023-02-20T11:01:37;97578.56;;;9.55;100.00
10720;BME280;5411;58.386;15.560;2023-02-20T11:04:11;97569.44;;;9.46;100.00
10720;BME280;5411;58.386;15.560;2023-02-20T11:06:44;97561.97;;;9.38;100.00
10720;BME280;5411;58.386;15.560;2023-02-20T11:09:13;97561.44;;;9.36;100.00
10720;BME280;5411;58.386;15.560;2023-02-20T11:11:44;97555.03;;;9.32;100.00
10720;BME280;5411;58.386;15.560;2023-02-20T11:14:14;97559.28;;;9.27;100.00
10720;BME280;5411;58.386;15.560;2023-02-20T11:16:51;97557.44;;;9.28;100.00
10720;BME280;5411;58.386;15.560;2023-02-20T11:19:26;97551.28;;;9.33;100.00
10720;BME280;5411;58.386;15.560;2023-02-20T11:21:57;97564.13;;;9.46;99.62
10720;BME280;5411;58.386;15.560;2023-02-20T11:24:30;97566.53;;;9.62;97.61
10720;BME280;5411;58.386;15.560;2023-02-20T11:27:07;97565.22;;;9.70;96.10
10720;BME280;5411;58.386;15.560;2023-02-20T11:29:50;97576.16;;;9.74;94.89
10720;BME280;5411;58.386;15.560;2023-02-20T11:32:24;97558.56;;;9.83;94.67
10720;BME280;5411;58.386;15.560;2023-02-20T11:35:13;97574.28;;;9.99;93.25
10720;BME280;5411;58.386;15.560;2023-02-20T11:37:43;97576.97;;;10.05;92.50
10720;BME280;5411;58.386;15.560;2023-02-20T11:40:25;97558.03;;;9.96;90.04
10720;BME280;5411;58.386;15.560;2023-02-20T11:43:09;97570.03;;;9.88;88.09
10720;BME280;5411;58.386;15.560;2023-02-20T11:45:38;97565.50;;;9.84;89.61
10720;BME280;5411;58.386;15.560;2023-02-20T11:48:08;97591.38;;;9.78;90.32
10720;BME280;5411;58.386;15.560;2023-02-20T11:50:40;97583.91;;;9.75;87.39
10720;BME280;5411;58.386;15.560;2023-02-20T11:53:20;97578.03;;;9.78;88.28
10720;BME280;5411;58.386;15.560;2023-02-20T11:56:04;97584.47;;;9.82;87.30
10720;BME280;5411;58.386;15.560;2023-02-20T11:58:37;97593.53;;;9.81;84.05
10720;BME280;5411;58.386;15.560;2023-02-20T12:01:07;97599.13;;;9.80;85.38
10720;BME280;5411;58.386;15.560;2023-02-20T12:03:56;97592.19;;;9.79;83.62
10720;BME280;5411;58.386;15.560;2023-02-20T12:06:38;97601.00;;;9.74;82.01
10720;BME280;5411;58.386;15.560;2023-02-20T12:09:11;97613.81;;;9.77;81.62
10720;BME280;5411;58.386;15.560;2023-02-20T12:11:42;97601.03;;;9.84;78.96
10720;BME280;5411;58.386;15.560;2023-02-20T12:14:13;97615.44;;;9.93;79.12
10720;BME280;5411;58.386;15.560;2023-02-20T12:17:00;97612.47;;;10.00;76.14
10720;BME280;5411;58.386;15.560;2023-02-20T12:19:36;97616.78;;;9.96;76.18
10720;BME280;5411;58.386;15.560;2023-02-20T12:22:21;97617.56;;;9.91;76.45
10720;BME280;5411;58.386;15.560;2023-02-20T12:25:13;97616.25;;;9.84;73.09
10720;BME280;5411;58.386;15.560;2023-02-20T12:28:12;97612.22;;;9.71;71.74
10720;BME280;5411;58.386;15.560;2023-02-20T12:31:01;97619.38;;;9.60;69.39
10720;BME280;5411;58.386;15.560;2023-02-20T12:33:44;97615.91;;;9.55;69.31
10720;BME280;5411;58.386;15.560;2023-02-20T12:36:29;97622.31;;;9.49;69.68
10720;BME280;5411;58.386;15.560;2023-02-20T12:39:06;97624.44;;;9.47;70.04
10720;BME280;5411;58.386;15.560;2023-02-20T12:42:02;97650.84;;;9.38;69.39
10720;BME280;5411;58.386;15.560;2023-02-20T12:44:56;97640.41;;;9.32;68.22
10720;BME280;5411;58.386;15.560;2023-02-20T12:47:31;97639.88;;;9.29;68.45
10720;BME280;5411;58.386;15.560;2023-02-20T12:50:22;97656.13;;;9.28;68.32
10720;BME280;5411;58.386;15.560;2023-02-20T12:53:29;97654.53;;;9.27;67.11
10720;BME280;5411;58.386;15.560;2023-02-20T12:56:12;97650.25;;;9.26;67.40
10720;BME280;5411;58.386;15.560;2023-02-20T12:58:47;97644.63;;;9.22;65.85
10720;BME280;5411;58.386;15.560;2023-02-20T13:01:18;97682.78;;;9.18;66.57
10720;BME280;5411;58.386;15.560;2023-02-20T13:04:15;97663.00;;;9.14;66.54
10720;BME280;5411;58.386;15.560;2023-02-20T13:06:51;97661.66;;;9.11;65.57
10720;BME280;5411;58.386;15.560;2023-02-20T13:09:25;97663.25;;;9.07;64.41
10720;BME280;5411;58.386;15.560;2023-02-20T13:12:02;97685.63;;;9.06;65.19
10720;BME280;5411;58.386;15.560;2023-02-20T13:14:41;97687.22;;;9.02;63.81
10720;BME280;5411;58.386;15.560;2023-02-20T13:17:24;97673.09;;;9.02;64.02
10720;BME280;5411;58.386;15.560;2023-02-20T13:20:00;97704.00;;;8.98;63.98
10720;BME280;5411;58.386;15.560;2023-02-20T13:22:33;97714.41;;;8.99;63.64
10720;BME280;5411;58.386;15.560;2023-02-20T13:25:38;97723.97;;;8.95;63.73
10720;BME280;5411;58.386;15.560;2023-02-20T13:28:28;97717.28;;;8.92;63.92
10720;BME280;5411;58.386;15.560;2023-02-20T13:31:16;97703.69;;;8.89;62.74
10720;BME280;5411;58.386;15.560;2023-02-20T13:33:47;97710.34;;;8.86;63.46
10720;BME280;5411;58.386;15.560;2023-02-20T13:36:36;97719.09;;;8.82;63.69
10720;BME280;5411;58.386;15.560;2023-02-20T13:42:29;97710.47;;;8.70;62.68